KMIA/MIA METAR and TAF weather

Enter ICAO airport designator
Station Type Date Time Source
KMIA METAR 2021/09/16 21:53 UTC NOAA

KMIA 162153Z 29004KT 10SM CLR 28/23 A2998 RMK AO2 SLP151 T02830233 $


Station Type Date Time Source
KMIA Decoded METAR 2021/09/16 21:53 UTC NOAA

MIAMI INTERNATIONAL AIRPORT , FL, United States (KMIA) 25-47N 080-19W 8M
Sep 16, 2021 - 05:53 PM EDT / 2021.09.16 2153 UTC
Wind: from the WNW (290 degrees) at 5 MPH (4 KT):0
Visibility: 10 mile(s):0
Sky conditions: clear
Temperature: 82.9 F (28.3 C)
Dew Point: 73.9 F (23.3 C)
Relative Humidity: 74%
Pressure (altimeter): 29.98 in. Hg (1015 hPa)
ob: KMIA 162153Z 29004KT 10SM CLR 28/23 A2998 RMK AO2 SLP151 T02830233
cycle: 22

Station Type Date Time Source
KMIA TAF 2021/09/16 21:39 UTC NOAA

TAF
AMD KMIA 162036Z 1621/1724 18008KT P6SM VCTS SCT030CB BKN060
FM170100 VRB04KT P6SM SCT030 BKN050
FM171500 17006KT P6SM VCSH SCT030 BKN050
FM171800 15008KT P6SM VCTS SCT030CB BKN050

Example: see airport list